PAEG

Details ICAO PAEG (EAA)
Name Eagle
Region USA (Alaska)
Timezone America/Anchorage (UTC-9.0)
Plans Departing 4
Arriving 9
Stats Elevation 880 ft / 268 m (AMSL)
Location 64.776393° -141.150921°
Runways 1
Magnetic Variation 19.497° E
Sunrise 2017-12-12 19:21:22 UTC / 2017-12-12 10:21:22 Local
Sunset 2017-12-12 23:18:31 UTC / 2017-12-12 14:18:31 Local
Advertisement - Login to hide

Runways

ID Width Length Bearing (true) Bearing (mag) Surface Threshold Offset Overrun Length
06 75 ft / 23 m 3,603 ft / 1,098 m 90.99° 71.49° Gravel 0 ft / 0 m 0 ft / 0 m
24 75 ft / 23 m 3,603 ft / 1,098 m 271.01° 251.51° Gravel 0 ft / 0 m 0 ft / 0 m

Map

Weather


0- 5 10 15 20 25 30 35+ Temperature / ° C

Clouds and Precipitation
Forecast for 2017-12-13 12:00 UTC. Updated 2 hours ago

Ground ~20,000 ft ~40,000 ft Winds

METAR

PAEG 130853Z AUTO VRB06KT 10SM CLR M03/M06 A3004 RMK AO2 SLP185 T10281061 400171078 50010 TSNO $

TAF

Not found
Warning: Do not use this data for real-world aviation or navigation. No guarantee of current accuracy is given.